createdAt,value
2019-04-14T00:02:23.390Z,103432.09
2019-04-14T00:04:53.349Z,103435.44
2019-04-14T00:07:23.052Z,103434.73
2019-04-14T00:09:52.734Z,103430.16
2019-04-14T00:12:23.027Z,103429.41
2019-04-14T00:14:53.414Z,103441.80
2019-04-14T00:17:23.821Z,103436.31
2019-04-14T00:19:54.439Z,103432.87
2019-04-14T00:22:27.488Z,103434.38
2019-04-14T00:24:55.389Z,103428.34
2019-04-14T00:27:25.891Z,103431.38
2019-04-14T00:29:56.735Z,103438.65
2019-04-14T00:32:26.944Z,103428.58
2019-04-14T00:35:04.501Z,103430.09
2019-04-14T00:37:59.807Z,103427.39
2019-04-14T00:40:36.716Z,103431.81
2019-04-14T00:43:17.785Z,103442.53
2019-04-14T00:45:58.181Z,103438.70
2019-04-14T00:48:28.398Z,103432.03
2019-04-14T00:50:58.459Z,103437.58
2019-04-14T00:53:27.650Z,103439.52
2019-04-14T00:55:57.592Z,103431.32
2019-04-14T00:58:27.928Z,103434.61
2019-04-14T01:00:58.001Z,103432.73
2019-04-14T01:03:28.698Z,103435.84
2019-04-14T01:05:59.045Z,103435.09
2019-04-14T01:08:29.275Z,103437.30
2019-04-14T01:10:59.001Z,103430.14
2019-04-14T01:13:28.926Z,103434.56
2019-04-14T01:16:06.993Z,103440.27
2019-04-14T01:18:31.821Z,103435.80
2019-04-14T01:21:02.395Z,103435.58
2019-04-14T01:23:32.643Z,103439.78
2019-04-14T01:26:02.925Z,103443.07
2019-04-14T01:28:33.000Z,103436.82
2019-04-14T01:31:03.381Z,103442.16
2019-04-14T01:33:33.706Z,103441.94
2019-04-14T01:36:03.949Z,103440.64
2019-04-14T01:38:34.344Z,103448.94
2019-04-14T01:41:04.350Z,103436.92
2019-04-14T01:43:34.181Z,103440.43
2019-04-14T01:46:11.664Z,103446.14
2019-04-14T01:48:34.780Z,103444.47
2019-04-14T01:51:22.942Z,103441.30
2019-04-14T01:54:06.659Z,103445.71
2019-04-14T01:57:04.612Z,103442.05
2019-04-14T01:59:35.160Z,103446.09
2019-04-14T02:02:07.454Z,103450.66
2019-04-14T02:04:37.732Z,103449.16
2019-04-14T02:07:08.116Z,103447.11
2019-04-14T02:09:37.921Z,103448.94
2019-04-14T02:12:08.433Z,103451.37
2019-04-14T02:14:38.698Z,103455.62
2019-04-14T02:17:09.485Z,103453.03
2019-04-14T02:19:39.295Z,103452.50
2019-04-14T02:22:09.563Z,103443.61
2019-04-14T02:24:39.579Z,103453.20
2019-04-14T02:27:09.810Z,103450.83
2019-04-14T02:29:40.750Z,103456.54
2019-04-14T02:35:15.017Z,103460.14
2019-04-14T02:37:43.319Z,103467.91
2019-04-14T02:40:08.851Z,103472.33
2019-04-14T02:42:39.909Z,103470.87
2019-04-14T02:45:19.450Z,103474.59
2019-04-14T02:48:03.605Z,103477.02
2019-04-14T02:50:15.765Z,103480.73
2019-04-14T02:53:02.003Z,103475.78
2019-04-14T02:55:29.899Z,103482.67
2019-04-14T02:57:47.620Z,103484.02
2019-04-14T03:05:19.585Z,103488.44
2019-04-14T03:07:51.694Z,103369.04
2019-04-14T03:10:29.863Z,103486.82
2019-04-14T03:12:59.046Z,103485.69
2019-04-14T03:15:23.995Z,103483.11
2019-04-14T03:21:19.966Z,103489.08
2019-04-14T03:24:03.172Z,103492.42
2019-04-14T03:26:49.489Z,103361.77
2019-04-14T03:39:33.552Z,103510.46
2019-04-14T03:42:00.995Z,103509.38
2019-04-14T03:44:35.210Z,103512.88
2019-04-14T03:47:10.939Z,103508.63
2019-04-14T03:49:42.441Z,103510.79
2019-04-14T03:54:25.847Z,103516.83
2019-04-14T03:56:51.225Z,103515.65
2019-04-14T03:59:21.836Z,103513.39
2019-04-14T04:01:52.277Z,103521.91
2019-04-14T04:04:22.691Z,103520.98
2019-04-14T04:06:53.151Z,103518.34
2019-04-14T04:09:27.883Z,103518.89
2019-04-14T04:11:58.435Z,103520.23
2019-04-14T04:14:27.658Z,103518.40
2019-04-14T04:17:19.050Z,103515.98
2019-04-14T04:20:17.354Z,103513.17
2019-04-14T04:23:05.224Z,103517.97
2019-04-14T04:25:40.718Z,103514.80
2019-04-14T04:28:27.981Z,103531.07
2019-04-14T04:31:19.878Z,103523.63
2019-04-14T04:34:05.395Z,103527.52
2019-04-14T04:36:44.213Z,103530.05
2019-04-14T04:39:35.282Z,103536.25
2019-04-14T04:42:04.833Z,103534.58
2019-04-14T04:44:35.554Z,103537.66
2019-04-14T04:47:05.708Z,103537.60
2019-04-14T04:49:36.155Z,103533.34
2019-04-14T04:52:06.269Z,103532.38
2019-04-14T04:54:36.938Z,103539.38
2019-04-14T04:57:08.868Z,103539.16
2019-04-14T04:59:38.834Z,103535.28
2019-04-14T05:02:09.034Z,103534.47
2019-04-14T05:04:39.410Z,103539.59
2019-04-14T05:07:09.908Z,103537.33
2019-04-14T05:10:04.757Z,103533.17
2019-04-14T05:12:45.636Z,103540.83
2019-04-14T05:15:40.408Z,103542.76
2019-04-14T05:18:16.066Z,103538.59
2019-04-14T05:20:46.402Z,103540.75
2019-04-14T05:23:16.862Z,103543.44
2019-04-14T05:25:47.363Z,103539.71
2019-04-14T05:28:17.821Z,103540.19
2019-04-14T05:30:48.301Z,103546.98
2019-04-14T05:33:18.546Z,103548.91
2019-04-14T05:35:48.878Z,103551.72
2019-04-14T05:38:19.091Z,103547.77
2019-04-14T05:40:49.575Z,103546.03
2019-04-14T05:43:30.234Z,103549.25
2019-04-14T05:45:50.248Z,103545.30
2019-04-14T05:48:20.424Z,103549.20
2019-04-14T05:50:51.145Z,103549.67
2019-04-14T05:53:20.399Z,103558.77
2019-04-14T05:55:50.381Z,103543.98
2019-04-14T05:58:20.761Z,103552.00
2019-04-14T06:00:51.657Z,103548.20
2019-04-14T06:03:21.364Z,103548.05
2019-04-14T06:05:50.828Z,103557.59
2019-04-14T06:08:20.017Z,103553.62
2019-04-14T06:10:49.323Z,103551.34
2019-04-14T06:13:18.559Z,103563.25
2019-04-14T06:15:47.775Z,103555.16
2019-04-14T06:18:17.223Z,103554.84
2019-04-14T06:20:46.627Z,103558.44
2019-04-14T06:23:15.877Z,103564.61
2019-04-14T06:25:45.743Z,103559.03
2019-04-14T06:28:15.117Z,103560.84
2019-04-14T06:31:02.466Z,103552.27
2019-04-14T06:33:53.846Z,103555.00
2019-04-14T06:36:40.800Z,103558.34
2019-04-14T06:39:22.059Z,103558.45
2019-04-14T06:41:51.482Z,103562.09
2019-04-14T06:44:20.686Z,103559.31
2019-04-14T06:46:50.377Z,103557.44
2019-04-14T06:49:19.900Z,103558.99
2019-04-14T06:51:49.103Z,103558.85
2019-04-14T06:54:18.355Z,103552.20
2019-04-14T06:56:47.627Z,103555.28
2019-04-14T06:59:16.831Z,103561.10
2019-04-14T07:01:46.065Z,103566.35
2019-04-14T07:04:15.482Z,103567.06
2019-04-14T07:06:44.677Z,103571.81
2019-04-14T07:09:13.954Z,103575.16
2019-04-14T07:11:43.287Z,103566.64
2019-04-14T07:14:12.541Z,103561.50
2019-04-14T07:16:41.788Z,103566.88
2019-04-14T07:19:11.397Z,103569.92
2019-04-14T07:21:40.608Z,103570.09
2019-04-14T07:24:09.868Z,103575.77
2019-04-14T07:26:39.301Z,103579.08
2019-04-14T07:29:08.931Z,103582.39
2019-04-14T07:32:00.619Z,103579.42
2019-04-14T07:34:58.560Z,103575.53
2019-04-14T07:37:56.050Z,103579.86
2019-04-14T07:40:42.950Z,103580.15
2019-04-14T07:43:17.818Z,103575.22
2019-04-14T07:46:14.983Z,103567.54
2019-04-14T07:49:21.415Z,103572.77
2019-04-14T07:52:03.993Z,103570.55
2019-04-14T07:54:41.378Z,103570.92
2019-04-14T07:57:26.189Z,103572.47
2019-04-14T08:00:03.774Z,103574.92
2019-04-14T08:02:41.404Z,103573.54
2019-04-14T08:05:17.842Z,103574.42
2019-04-14T08:07:47.679Z,103570.34
2019-04-14T08:10:16.873Z,103574.73
2019-04-14T08:12:46.250Z,103567.39
2019-04-14T08:15:15.551Z,103570.24
2019-04-14T08:17:44.754Z,103567.58
2019-04-14T08:20:26.914Z,103567.63
2019-04-14T08:22:46.712Z,103570.09
2019-04-14T08:25:16.234Z,103563.44
2019-04-14T08:27:45.476Z,103560.23
2019-04-14T08:30:14.865Z,103559.10
2019-04-14T08:32:44.234Z,103559.22
2019-04-14T08:35:13.678Z,103560.64
2019-04-14T08:37:42.862Z,103562.89
2019-04-14T08:40:12.427Z,103557.55
2019-04-14T08:42:48.038Z,103558.02
2019-04-14T08:45:34.796Z,103561.78
2019-04-14T08:48:24.120Z,103558.08
2019-04-14T08:51:15.204Z,103559.73
2019-04-14T08:53:48.504Z,103560.26
2019-04-14T08:56:35.903Z,103558.37
2019-04-14T08:59:22.970Z,103566.35
2019-04-14T09:02:23.405Z,103564.31
2019-04-14T09:05:06.079Z,103560.83
2019-04-14T09:08:00.402Z,103562.66
2019-04-14T09:10:32.294Z,103562.48
2019-04-14T09:13:01.713Z,103568.58
2019-04-14T09:15:31.003Z,103567.32
2019-04-14T09:18:00.398Z,103564.57
2019-04-14T09:20:29.968Z,103570.02
2019-04-14T09:22:59.172Z,103570.86
2019-04-14T09:25:28.251Z,103570.29
2019-04-14T09:27:57.813Z,103577.43
2019-04-14T09:30:27.053Z,103580.39
2019-04-14T09:32:56.292Z,103583.17
2019-04-14T09:35:25.706Z,103586.22
2019-04-14T09:37:54.912Z,103586.67
2019-04-14T09:40:24.183Z,103586.59
2019-04-14T09:42:53.609Z,103579.83
2019-04-14T09:45:22.792Z,103585.39
2019-04-14T09:47:52.052Z,103587.88
2019-04-14T09:50:21.821Z,103594.42
2019-04-14T09:52:51.022Z,103593.26
2019-04-14T09:55:20.264Z,103590.27
2019-04-14T09:57:49.525Z,103591.43
2019-04-14T10:00:19.924Z,103592.31
2019-04-14T10:02:49.175Z,103593.88
2019-04-14T10:05:18.646Z,103598.95
2019-04-14T10:07:48.835Z,103590.44
2019-04-14T10:10:18.092Z,103593.97
2019-04-14T10:12:47.563Z,103594.39
2019-04-14T10:15:16.770Z,103602.61
2019-04-14T10:17:46.009Z,103595.70
2019-04-14T10:20:15.328Z,103601.47
2019-04-14T10:22:44.534Z,103598.73
2019-04-14T10:25:13.755Z,103596.09
2019-04-14T10:27:43.154Z,103601.17
2019-04-14T10:30:12.458Z,103600.38
2019-04-14T10:32:41.689Z,103603.77
2019-04-14T10:35:11.258Z,103608.05
2019-04-14T10:37:40.462Z,103610.22
2019-04-14T10:40:10.042Z,103604.29
2019-04-14T10:42:39.371Z,103609.48
2019-04-14T10:45:08.968Z,103607.36
2019-04-14T10:47:38.617Z,103598.21
2019-04-14T10:50:08.485Z,103600.31
2019-04-14T10:52:37.733Z,103594.52
2019-04-14T10:55:07.258Z,103596.39
2019-04-14T10:57:36.625Z,103597.58
2019-04-14T11:00:08.403Z,103599.28
2019-04-14T11:02:37.863Z,103601.94
2019-04-14T11:05:08.699Z,103600.75
2019-04-14T11:07:37.918Z,103604.20
2019-04-14T11:10:08.932Z,103604.00
2019-04-14T11:12:38.117Z,103600.14
2019-04-14T11:15:08.134Z,103597.92
2019-04-14T11:17:37.651Z,103597.92
2019-04-14T11:20:07.278Z,103593.27
2019-04-14T11:22:36.532Z,103586.60
2019-04-14T11:25:06.784Z,103589.11
2019-04-14T11:27:36.816Z,103591.05
2019-04-14T11:30:07.975Z,103586.88
2019-04-14T11:33:02.179Z,103585.25
2019-04-14T11:35:46.081Z,103587.59
2019-04-14T11:38:25.126Z,103587.09
2019-04-14T11:40:56.674Z,103587.84
2019-04-14T11:43:25.900Z,103583.73
2019-04-14T11:45:55.128Z,103579.41
2019-04-14T11:48:24.543Z,103576.09
2019-04-14T11:50:53.757Z,103575.81
2019-04-14T11:53:23.013Z,103568.35
2019-04-14T11:55:52.369Z,103570.51
2019-04-14T11:58:21.562Z,103568.02
2019-04-14T12:01:13.152Z,103567.78
2019-04-14T12:03:55.350Z,103569.32
2019-04-14T12:06:49.759Z,103566.69
2019-04-14T12:09:34.321Z,103561.49
2019-04-14T12:12:05.099Z,103565.37
2019-04-14T12:14:34.315Z,103564.94
2019-04-14T12:17:03.616Z,103572.85
2019-04-14T12:19:32.946Z,103570.62
2019-04-14T12:22:08.101Z,103570.17
2019-04-14T12:24:33.076Z,103572.11
2019-04-14T12:27:02.487Z,103571.66
2019-04-14T12:29:32.544Z,103568.18
2019-04-14T12:32:02.508Z,103568.69
2019-04-14T12:34:31.959Z,103569.42
2019-04-14T12:37:01.270Z,103571.31
2019-04-14T12:39:30.550Z,103565.56
2019-04-14T12:42:18.904Z,103566.08
2019-04-14T12:45:03.867Z,103563.96
2019-04-14T12:47:41.448Z,103561.91
2019-04-14T12:50:18.193Z,103558.55
2019-04-14T12:52:47.607Z,103557.58
2019-04-14T12:55:16.794Z,103562.48
2019-04-14T12:57:48.579Z,103559.06
2019-04-14T13:00:49.580Z,103555.95
2019-04-14T13:03:19.215Z,103553.17
2019-04-14T13:05:48.460Z,103555.22
2019-04-14T13:08:17.691Z,103548.30
2019-04-14T13:10:47.231Z,103545.42
2019-04-14T13:13:16.448Z,103546.84
2019-04-14T13:15:45.705Z,103541.63
2019-04-14T13:18:15.062Z,103535.03
2019-04-14T13:20:44.283Z,103540.10
2019-04-14T13:23:13.681Z,103082.72
2019-04-14T13:25:43.118Z,103530.54
2019-04-14T13:28:12.349Z,103532.63
2019-04-14T13:30:43.590Z,103528.84
2019-04-14T13:33:13.136Z,103525.33
2019-04-14T13:35:42.345Z,103519.58
2019-04-14T13:38:11.687Z,103520.79
2019-04-14T13:40:41.476Z,103522.51
2019-04-14T13:43:10.686Z,103520.49
2019-04-14T13:45:40.248Z,103520.14
2019-04-14T13:48:09.575Z,103511.04
2019-04-14T13:50:38.763Z,103517.77
2019-04-14T13:53:08.338Z,103512.51
2019-04-14T13:55:37.633Z,103510.39
2019-04-14T13:58:06.845Z,103507.48
2019-04-14T14:00:36.110Z,103508.63
2019-04-14T14:03:05.497Z,103507.11
2019-04-14T14:05:34.715Z,103509.23
2019-04-14T14:08:04.360Z,103504.87
2019-04-14T14:10:33.792Z,103504.27
2019-04-14T14:13:10.930Z,103501.04
2019-04-14T14:16:04.079Z,103501.05
2019-04-14T14:18:46.551Z,103494.86
2019-04-14T14:21:36.632Z,103494.92
2019-04-14T14:24:23.682Z,103495.69
2019-04-14T14:26:53.659Z,103486.75
2019-04-14T14:29:22.883Z,103486.75
2019-04-14T14:31:52.617Z,103485.56
2019-04-14T14:34:22.174Z,103485.05
2019-04-14T14:36:51.368Z,103485.05
2019-04-14T14:39:21.418Z,103487.70
2019-04-14T14:41:51.239Z,103488.19
2019-04-14T14:44:22.027Z,103481.45
2019-04-14T14:47:05.579Z,103478.19
2019-04-14T14:49:47.780Z,103476.84
2019-04-14T14:52:18.962Z,103481.50
2019-04-14T14:54:48.176Z,103474.61
2019-04-14T14:57:17.435Z,103476.33
2019-04-14T14:59:46.915Z,103471.70
2019-04-14T15:02:16.143Z,103467.92
2019-04-14T15:04:45.355Z,103459.25
2019-04-14T15:07:14.848Z,103453.74
2019-04-14T15:09:44.291Z,103452.34
2019-04-14T15:12:13.502Z,103454.20
2019-04-14T15:14:43.029Z,103455.30
2019-04-14T15:17:12.333Z,103452.23
2019-04-14T15:19:41.632Z,103450.72
2019-04-14T15:22:11.128Z,103452.16
2019-04-14T15:24:40.335Z,103450.66
2019-04-14T15:27:09.592Z,103450.95
2019-04-14T15:29:38.936Z,103446.97
2019-04-14T15:32:08.174Z,103456.22
2019-04-14T15:34:37.400Z,103455.31
2019-04-14T15:37:07.362Z,103458.34
2019-04-14T15:39:37.723Z,103452.30
2019-04-14T15:42:07.034Z,103446.37
2019-04-14T15:44:36.528Z,103451.36
2019-04-14T15:47:05.835Z,103449.48
2019-04-14T15:49:35.114Z,103444.51
2019-04-14T15:52:04.981Z,103450.35
2019-04-14T15:54:34.367Z,103445.59
2019-04-14T15:57:23.472Z,103444.97
2019-04-14T16:00:19.290Z,103448.37
2019-04-14T16:03:07.619Z,103442.16
2019-04-14T16:05:44.931Z,103442.25
2019-04-14T16:08:18.959Z,103444.48
2019-04-14T16:10:52.224Z,103442.63
2019-04-14T16:13:25.498Z,103436.36
2019-04-14T16:16:12.188Z,103444.26
2019-04-14T16:18:48.919Z,103442.26
2019-04-14T16:21:18.212Z,103439.34
2019-04-14T16:23:50.907Z,103438.73
2019-04-14T16:26:40.299Z,103437.41
2019-04-14T16:29:19.087Z,103445.27
2019-04-14T16:32:06.048Z,103447.77
2019-04-14T16:34:41.112Z,103449.58
2019-04-14T16:37:10.637Z,103447.34
2019-04-14T16:39:40.890Z,103445.02
2019-04-14T16:42:10.200Z,103440.88
2019-04-14T16:44:39.693Z,103445.81
2019-04-14T16:47:08.961Z,103449.98
2019-04-14T16:49:38.206Z,103446.09
2019-04-14T16:52:35.314Z,103452.22
2019-04-14T16:55:21.387Z,103450.77
2019-04-14T16:58:11.571Z,103459.38
2019-04-14T17:00:43.704Z,103456.36
2019-04-14T17:03:13.236Z,103459.56
2019-04-14T17:05:42.517Z,103461.66
2019-04-14T17:08:11.715Z,103462.10
2019-04-14T17:10:41.338Z,103467.76
2019-04-14T17:13:10.659Z,103463.66
2019-04-14T17:15:57.870Z,103462.66
2019-04-14T17:18:46.060Z,103465.10
2019-04-14T17:21:33.404Z,103464.39
2019-04-14T17:24:16.235Z,103464.16
2019-04-14T17:27:00.527Z,103462.67
2019-04-14T17:29:40.261Z,103471.56
2019-04-14T17:32:27.965Z,103468.74
2019-04-14T17:35:07.235Z,103465.50
2019-04-14T17:37:53.251Z,103464.34
2019-04-14T17:40:46.564Z,103466.70
2019-04-14T17:43:22.109Z,103463.45
2019-04-14T17:46:13.366Z,103466.31
2019-04-14T17:49:17.138Z,103466.83
2019-04-14T17:52:08.392Z,103463.29
2019-04-14T17:54:52.503Z,103463.27
2019-04-14T17:57:53.000Z,103466.91
2019-04-14T18:00:56.300Z,103469.23
2019-04-14T18:03:56.305Z,103465.84
2019-04-14T18:06:36.198Z,103464.90
2019-04-14T18:09:38.224Z,103465.00
2019-04-14T18:12:30.324Z,103459.63
2019-04-14T18:15:17.680Z,103465.30
2019-04-14T18:18:23.888Z,103468.66
2019-04-14T18:20:56.318Z,103465.11
2019-04-14T18:23:25.704Z,103473.67
2019-04-14T18:25:54.907Z,103461.30
2019-04-14T18:28:34.589Z,103471.57
2019-04-14T18:31:18.918Z,103467.00
2019-04-14T18:34:05.824Z,103477.00
2019-04-14T18:36:39.256Z,103480.59
2019-04-14T18:39:49.518Z,103479.62
2019-04-14T18:42:39.716Z,103482.67
2019-04-14T18:45:15.610Z,103486.55
2019-04-14T18:47:58.315Z,103491.42
2019-04-14T18:50:52.873Z,103498.13
2019-04-14T18:53:27.010Z,103494.86
2019-04-14T18:56:08.875Z,103500.83
2019-04-14T18:58:55.704Z,103508.97
2019-04-14T19:01:28.094Z,103515.19
2019-04-14T19:03:57.310Z,103514.90
2019-04-14T19:06:27.920Z,103517.73
2019-04-14T19:08:57.505Z,103519.48
2019-04-14T19:11:48.753Z,103516.44
2019-04-14T19:14:25.281Z,103519.52
2019-04-14T19:17:08.525Z,103522.98
2019-04-14T19:19:39.118Z,103516.97
2019-04-14T19:22:08.332Z,103523.41
2019-04-14T19:24:37.758Z,103525.42
2019-04-14T19:27:07.372Z,103521.70
2019-04-14T19:29:36.601Z,103526.31
2019-04-14T19:32:05.812Z,103529.38
2019-04-14T19:34:35.211Z,103529.94
2019-04-14T19:37:04.421Z,103528.81
2019-04-14T19:39:33.633Z,103536.31
2019-04-14T19:42:03.043Z,103541.50
2019-04-14T19:44:32.251Z,103535.25
2019-04-14T19:47:01.833Z,103539.61
2019-04-14T19:49:31.403Z,103534.73
2019-04-14T19:52:00.772Z,103540.01
2019-04-14T19:54:29.964Z,103538.87
2019-04-14T19:56:59.290Z,103539.49
2019-04-14T19:59:28.492Z,103543.55
2019-04-14T20:01:57.699Z,103540.20
2019-04-14T20:04:27.255Z,103542.34
2019-04-14T20:06:56.591Z,103540.35
2019-04-14T20:09:25.907Z,103542.03
2019-04-14T20:11:55.592Z,103543.56
2019-04-14T20:14:24.903Z,103546.16
2019-04-14T20:17:06.006Z,103545.77
2019-04-14T20:19:42.482Z,103549.20
2019-04-14T20:22:17.731Z,103553.32
2019-04-14T20:24:56.189Z,103546.60
2019-04-14T20:27:33.122Z,103553.30
2019-04-14T20:30:07.389Z,103553.28
2019-04-14T20:32:38.795Z,103549.92
2019-04-14T20:35:12.719Z,103555.08
2019-04-14T20:37:42.103Z,103556.13
2019-04-14T20:40:11.536Z,103557.56
2019-04-14T20:42:40.802Z,103562.05
2019-04-14T20:45:13.654Z,103560.38
2019-04-14T20:47:42.974Z,103551.43
2019-04-14T20:50:13.087Z,103556.14
2019-04-14T20:52:42.617Z,103554.38
2019-04-14T20:55:12.120Z,103557.97
2019-04-14T20:57:41.345Z,103553.93
2019-04-14T21:00:11.665Z,103558.03
2019-04-14T21:03:03.296Z,103558.64
2019-04-14T21:05:47.242Z,103564.03
2019-04-14T21:08:34.964Z,103560.21
2019-04-14T21:11:09.160Z,103557.68
2019-04-14T21:13:44.769Z,103562.55
2019-04-14T21:16:26.089Z,103569.23
2019-04-14T21:19:00.498Z,103564.87
2019-04-14T21:21:38.214Z,103570.70
2019-04-14T21:24:19.186Z,103567.62
2019-04-14T21:26:53.425Z,103569.14
2019-04-14T21:29:59.814Z,103562.34
2019-04-14T21:32:37.553Z,103563.48
2019-04-14T21:35:31.903Z,103560.08
2019-04-14T21:38:20.291Z,103573.30
2019-04-14T21:40:52.940Z,103572.64
2019-04-14T21:43:22.382Z,103569.08
2019-04-14T21:45:51.594Z,103571.23
2019-04-14T21:48:21.014Z,103573.11
2019-04-14T21:50:50.488Z,103571.06
2019-04-14T21:53:19.889Z,103576.23
2019-04-14T21:55:49.874Z,103578.28
2019-04-14T21:58:47.363Z,103581.08
2019-04-14T22:01:53.962Z,103585.81
2019-04-14T22:04:41.494Z,103587.08
2019-04-14T22:07:28.390Z,103585.33
2019-04-14T22:10:18.682Z,103595.67
2019-04-14T22:12:48.643Z,103598.09
2019-04-14T22:15:18.091Z,103590.71
2019-04-14T22:17:47.308Z,103589.20
2019-04-14T22:20:16.650Z,103599.38
2019-04-14T22:22:47.237Z,103596.30
2019-04-14T22:25:16.450Z,103604.85
2019-04-14T22:27:45.855Z,103601.63
2019-04-14T22:30:15.521Z,103606.30
2019-04-14T22:32:45.079Z,103605.42
2019-04-14T22:35:14.497Z,103607.91
2019-04-14T22:37:43.933Z,103615.33
2019-04-14T22:40:13.362Z,103614.65
2019-04-14T22:42:42.890Z,103612.88
2019-04-14T22:45:13.372Z,103619.92
2019-04-14T22:47:42.583Z,103613.30
2019-04-14T22:50:11.814Z,103619.55
2019-04-14T22:52:41.370Z,103620.91
2019-04-14T22:55:11.002Z,103611.95
2019-04-14T22:57:40.282Z,103609.78
2019-04-14T23:00:12.896Z,103613.28
2019-04-14T23:03:10.247Z,103611.24
2019-04-14T23:05:47.771Z,103614.38
2019-04-14T23:08:31.471Z,103618.27
2019-04-14T23:11:15.074Z,103615.69
2019-04-14T23:13:52.331Z,103615.32
2019-04-14T23:16:43.902Z,103618.48
2019-04-14T23:19:17.593Z,103614.80
2019-04-14T23:21:52.932Z,103623.13
2019-04-14T23:24:31.829Z,103623.70
2019-04-14T23:27:01.127Z,103630.92
2019-04-14T23:29:30.394Z,103632.81
2019-04-14T23:31:59.619Z,103632.13
2019-04-14T23:34:29.080Z,103632.15
2019-04-14T23:36:58.292Z,103628.84
2019-04-14T23:39:27.556Z,103631.08
2019-04-14T23:41:57.063Z,103627.61
2019-04-14T23:44:26.239Z,103629.44
2019-04-14T23:46:55.518Z,103637.58
2019-04-14T23:49:24.805Z,103640.01
2019-04-14T23:51:53.991Z,103638.91
2019-04-14T23:54:23.213Z,103632.81
2019-04-14T23:57:04.855Z,103628.38
2019-04-14T23:59:23.740Z,103633.16
